Time;durP1;ratioP1;P1;durP2;ratioP2;P2;SDS_P1;SDS_P2;PMS_P1;PMS_P2;Temp;Humidity;BMP_temperature;BMP_pressure;BME280_temperature;BME280_humidity;BME280_pressure;Samples;Min_cycle;Max_cycle;Signal;HPM_P1;HPM_P2
2022/09/09 00:01:10;;;;;;;12.68;11.30;;;13.70;99.90;;;;;;4966765;28;20129;-63
2022/09/09 00:03:47;;;;;;;12.02;10.75;;;13.60;99.90;;;;;;4951405;28;20405;-63
2022/09/09 00:06:25;;;;;;;13.05;11.68;;;13.60;99.90;;;;;;4950766;28;20066;-63
2022/09/09 00:09:00;;;;;;;27.40;13.57;;;13.60;99.90;;;;;;4950542;28;20043;-63
2022/09/09 00:11:55;;;;;;;12.98;11.68;;;13.50;99.90;;;;;;4950110;28;20565;-63
2022/09/09 00:14:24;;;;;;;14.40;12.88;;;13.50;99.90;;;;;;4962572;28;20125;-63
2022/09/09 00:16:55;;;;;;;12.00;10.88;;;13.40;99.90;;;;;;4969511;28;20038;-63
2022/09/09 00:19:32;;;;;;;14.25;12.27;;;13.40;99.90;;;;;;4969464;28;20059;-63
2022/09/09 00:22:32;;;;;;;11.32;10.23;;;13.40;99.90;;;;;;4968618;28;20042;-63
2022/09/09 00:25:18;;;;;;;9.68;8.93;;;13.30;99.90;;;;;;4957623;28;20097;-63
2022/09/09 00:27:47;;;;;;;8.70;8.00;;;13.30;99.90;;;;;;4969001;28;20042;-63
2022/09/09 00:30:30;;;;;;;9.38;8.27;;;13.30;99.90;;;;;;4969426;28;20129;-63
2022/09/09 00:33:08;;;;;;;8.85;7.95;;;13.20;99.90;;;;;;4963577;28;20452;-63
2022/09/09 00:35:43;;;;;;;8.70;8.05;;;13.20;99.90;;;;;;4969578;28;20042;-63
2022/09/09 00:38:13;;;;;;;9.50;8.70;;;13.20;99.90;;;;;;4966224;28;20042;-63
2022/09/09 00:41:12;;;;;;;8.95;7.65;;;13.10;99.90;;;;;;4950458;28;20051;-63
2022/09/09 00:43:40;;;;;;;7.40;6.80;;;13.10;99.90;;;;;;4949264;28;20062;-63
2022/09/09 00:46:41;;;;;;;8.50;7.68;;;13.10;99.90;;;;;;4962592;28;20039;-63
2022/09/09 00:49:19;;;;;;;9.50;8.60;;;13.10;99.90;;;;;;4960155;28;20126;-63
2022/09/09 00:52:11;;;;;;;12.07;9.52;;;13.10;99.90;;;;;;4968561;28;20050;-63
2022/09/09 00:54:50;;;;;;;10.45;9.45;;;13.10;99.90;;;;;;4969110;28;20057;-63
2022/09/09 00:57:34;;;;;;;11.40;9.00;;;13.10;99.90;;;;;;4968673;28;20528;-63
2022/09/09 01:00:23;;;;;;;12.05;10.60;;;13.10;99.90;;;;;;4968780;28;20062;-63
2022/09/09 01:03:06;;;;;;;11.70;10.43;;;13.10;99.90;;;;;;4960339;28;20054;-63
2022/09/09 01:05:32;;;;;;;13.35;10.77;;;13.10;99.90;;;;;;4964217;28;20082;-63
2022/09/09 01:08:02;;;;;;;15.40;11.18;;;13.10;99.90;;;;;;4965746;28;20130;-63
2022/09/09 01:11:03;;;;;;;13.85;11.70;;;13.10;99.90;;;;;;4959298;28;20130;-63
2022/09/09 01:13:34;;;;;;;14.50;11.82;;;13.10;99.90;;;;;;4943245;29;20082;-63
2022/09/09 01:16:02;;;;;;;21.13;11.60;;;13.10;99.90;;;;;;4955522;28;20063;-63
2022/09/09 01:18:36;;;;;;;16.52;10.85;;;13.10;99.90;;;;;;4960152;28;20102;-63
2022/09/09 01:21:40;;;;;;;13.93;12.52;;;13.10;99.90;;;;;;4963854;28;20393;-63
2022/09/09 01:24:43;;;;;;;12.23;10.93;;;13.10;99.90;;;;;;4953811;28;20043;-63
2022/09/09 01:27:10;;;;;;;17.13;11.52;;;13.10;99.90;;;;;;4953117;28;20126;-63
2022/09/09 01:29:36;;;;;;;14.80;11.63;;;13.10;99.90;;;;;;4971921;28;20145;-63
2022/09/09 01:32:41;;;;;;;14.20;12.38;;;13.10;99.90;;;;;;4972231;28;20055;-63
2022/09/09 01:35:34;;;;;;;17.42;12.38;;;13.10;99.90;;;;;;4972680;28;20097;-63
2022/09/09 01:38:00;;;;;;;17.73;12.90;;;13.20;99.90;;;;;;4969553;28;20101;-63
2022/09/09 01:40:26;;;;;;;25.35;15.60;;;13.20;99.90;;;;;;4971830;28;20043;-63
2022/09/09 01:42:52;;;;;;;22.20;13.93;;;13.30;99.90;;;;;;4971206;28;20511;-63
2022/09/09 01:45:18;;;;;;;19.77;14.25;;;13.30;99.90;;;;;;4972206;28;20050;-63
2022/09/09 01:47:45;;;;;;;24.08;15.25;;;13.40;99.90;;;;;;4971826;28;20397;-63
2022/09/09 01:50:15;;;;;;;22.40;16.45;;;13.40;99.90;;;;;;4971712;28;20162;-63
2022/09/09 01:52:43;;;;;;;23.15;17.05;;;13.50;99.90;;;;;;4971253;28;20055;-63
2022/09/09 01:55:09;;;;;;;22.02;16.08;;;13.50;99.90;;;;;;4957000;28;20047;-63
2022/09/09 01:57:49;;;;;;;26.65;16.00;;;13.60;99.90;;;;;;4963872;28;20101;-63
2022/09/09 02:00:16;;;;;;;25.73;17.45;;;13.60;99.90;;;;;;4971774;28;20098;-63
2022/09/09 02:03:20;;;;;;;22.27;16.20;;;13.60;99.90;;;;;;4970359;28;20042;-64
2022/09/09 02:05:54;;;;;;;22.27;16.25;;;13.70;99.90;;;;;;4970250;28;20050;-64
2022/09/09 02:08:26;;;;;;;24.00;16.13;;;13.70;99.90;;;;;;4970141;28;20042;-64
2022/09/09 02:11:17;;;;;;;33.05;15.75;;;13.70;99.90;;;;;;4954773;28;20988;-65
2022/09/09 02:13:45;;;;;;;22.90;15.85;;;13.80;99.90;;;;;;4964716;28;20189;-65
2022/09/09 02:16:15;;;;;;;20.92;16.45;;;13.80;99.90;;;;;;4970430;28;20050;-65
2022/09/09 02:19:02;;;;;;;21.60;16.35;;;13.80;99.90;;;;;;4968685;28;20177;-65
2022/09/09 02:21:34;;;;;;;20.35;14.90;;;13.90;99.90;;;;;;4950831;28;20137;-65
2022/09/09 02:24:04;;;;;;;25.75;15.55;;;13.90;99.90;;;;;;4961279;28;20436;-65
2022/09/09 02:26:32;;;;;;;22.25;15.20;;;14.00;99.90;;;;;;4965522;28;20066;-65
2022/09/09 02:29:03;;;;;;;17.50;13.15;;;14.00;99.90;;;;;;4969414;28;20125;-65
2022/09/09 02:31:29;;;;;;;21.40;14.32;;;14.00;99.90;;;;;;4965480;28;20142;-66
2022/09/09 02:33:58;;;;;;;23.08;14.50;;;14.00;99.90;;;;;;4971260;28;20038;-66
2022/09/09 02:36:30;;;;;;;22.73;12.00;;;14.10;99.90;;;;;;4970572;28;20089;-65
2022/09/09 02:38:56;;;;;;;20.67;13.43;;;14.10;99.90;;;;;;4970570;28;20118;-66
2022/09/09 02:41:30;;;;;;;19.85;12.95;;;14.10;99.90;;;;;;4970981;28;20059;-65
2022/09/09 02:43:56;;;;;;;18.77;14.32;;;14.10;99.90;;;;;;4962927;28;20070;-66
2022/09/09 02:46:48;;;;;;;19.30;12.95;;;14.20;99.90;;;;;;4962859;28;20496;-66
2022/09/09 02:49:40;;;;;;;22.95;14.35;;;14.20;99.90;;;;;;4968843;28;20153;-66
2022/09/09 02:52:08;;;;;;;17.70;13.85;;;14.20;99.90;;;;;;4970339;28;20089;-66
2022/09/09 02:54:36;;;;;;;;;;;14.30;99.90;;;;;;4970974;28;20051;-66
2022/09/09 02:57:13;;;;;;;23.58;16.20;;;14.30;99.90;;;;;;4962507;28;19922;-66
2022/09/09 02:59:40;;;;;;;24.75;17.05;;;14.30;99.90;;;;;;4955912;28;20404;-66
2022/09/09 03:02:05;;;;;;;29.65;16.35;;;14.30;99.90;;;;;;4970606;28;20049;-65
2022/09/09 03:04:31;;;;;;;23.73;15.45;;;14.30;99.90;;;;;;4962186;28;20039;-66
2022/09/09 03:06:58;;;;;;;34.50;14.68;;;14.30;99.90;;;;;;4968115;28;20073;-65
2022/09/09 03:09:25;;;;;;;24.00;15.15;;;14.30;99.90;;;;;;4959259;28;20118;-65
2022/09/09 03:11:51;;;;;;;22.33;15.48;;;14.30;99.90;;;;;;4951548;29;20054;-65
2022/09/09 03:14:20;;;;;;;23.63;15.10;;;14.30;99.90;;;;;;4956472;28;20047;-65
2022/09/09 03:16:47;;;;;;;25.42;15.85;;;14.30;99.90;;;;;;4968602;28;20047;-65
2022/09/09 03:19:12;;;;;;;31.58;20.02;;;14.40;99.90;;;;;;4969981;28;20051;-65
2022/09/09 03:21:38;;;;;;;20.40;16.65;;;14.40;99.90;;;;;;4966811;28;20518;-65
2022/09/09 03:24:04;;;;;;;23.75;17.00;;;14.40;99.90;;;;;;4969917;28;20046;-65
2022/09/09 03:26:31;;;;;;;25.38;18.23;;;14.40;99.90;;;;;;4964227;28;20535;-65
2022/09/09 03:28:57;;;;;;;24.55;17.10;;;14.40;99.90;;;;;;4968272;28;20047;-65
2022/09/09 03:31:23;;;;;;;29.05;16.88;;;14.40;99.90;;;;;;4969906;28;20109;-66
2022/09/09 03:33:49;;;;;;;22.48;16.17;;;14.40;99.90;;;;;;4969029;28;20046;-65
2022/09/09 03:36:14;;;;;;;26.70;17.25;;;14.40;99.90;;;;;;4965991;28;20154;-65
2022/09/09 03:38:41;;;;;;;19.50;15.90;;;14.40;99.90;;;;;;4963479;28;20049;-65
2022/09/09 03:41:07;;;;;;;21.15;16.73;;;14.40;99.90;;;;;;4969071;28;20506;-65
2022/09/09 03:43:34;;;;;;;25.25;16.52;;;14.40;99.90;;;;;;4957009;28;20055;-66
2022/09/09 03:45:59;;;;;;;21.10;14.77;;;14.40;99.90;;;;;;4950250;28;20158;-66
2022/09/09 03:48:27;;;;;;;20.67;15.70;;;14.50;99.90;;;;;;4961026;28;20082;-66
2022/09/09 03:50:55;;;;;;;18.33;15.57;;;14.40;99.90;;;;;;4968468;28;20511;-66
2022/09/09 03:53:24;;;;;;;20.30;14.73;;;14.50;99.90;;;;;;4968942;28;20399;-66
2022/09/09 03:55:54;;;;;;;18.85;15.32;;;14.50;99.90;;;;;;4966064;28;20110;-66
2022/09/09 03:58:21;;;;;;;23.23;15.85;;;14.50;99.90;;;;;;4969094;28;20046;-66
2022/09/09 04:00:57;;;;;;;24.43;15.97;;;14.50;99.90;;;;;;4969269;28;20047;-66
2022/09/09 04:03:24;;;;;;;19.17;14.63;;;14.50;99.90;;;;;;4968975;28;20290;-66
2022/09/09 04:05:54;;;;;;;16.02;12.60;;;14.40;99.90;;;;;;4968888;28;20054;-66
2022/09/09 04:08:20;;;;;;;16.80;12.48;;;14.40;99.90;;;;;;4969243;28;20051;-66
2022/09/09 04:10:48;;;;;;;21.88;12.43;;;14.40;99.90;;;;;;4967226;28;20039;-65
2022/09/09 04:13:16;;;;;;;18.15;11.88;;;14.40;99.90;;;;;;4965887;28;20058;-65
2022/09/09 04:15:43;;;;;;;14.15;10.00;;;14.40;99.90;;;;;;4967257;28;20042;-66
2022/09/09 04:18:09;;;;;;;13.80;10.30;;;14.40;99.90;;;;;;4968722;28;20046;-66
2022/09/09 04:20:35;;;;;;;11.35;8.68;;;14.40;99.90;;;;;;4969502;28;20047;-66
2022/09/09 04:23:01;;;;;;;12.75;9.10;;;14.40;99.90;;;;;;4969024;28;20429;-66
2022/09/09 04:25:27;;;;;;;14.73;9.75;;;14.30;99.90;;;;;;4969282;28;20043;-66
2022/09/09 04:27:57;;;;;;;11.60;9.55;;;14.30;99.90;;;;;;4957725;28;20054;-66
2022/09/09 04:30:24;;;;;;;15.02;9.52;;;14.30;99.90;;;;;;4969509;28;20467;-66
2022/09/09 04:32:49;;;;;;;12.10;10.15;;;14.30;99.90;;;;;;4968911;28;20530;-66
2022/09/09 04:35:15;;;;;;;15.20;11.45;;;14.30;99.90;;;;;;4968810;28;20150;-66
2022/09/09 04:37:41;;;;;;;20.23;12.32;;;14.30;99.90;;;;;;4968382;28;20178;-66
2022/09/09 04:40:09;;;;;;;14.43;10.27;;;14.30;99.90;;;;;;4961737;28;20137;-66
2022/09/09 04:42:35;;;;;;;;;;;14.30;99.90;;;;;;4963045;28;20508;-66
2022/09/09 04:45:01;;;;;;;16.85;11.48;;;14.30;99.90;;;;;;4964481;28;19922;-66
2022/09/09 04:47:27;;;;;;;24.98;14.32;;;14.30;99.90;;;;;;4961125;28;20039;-66
2022/09/09 04:49:54;;;;;;;27.65;14.48;;;14.30;99.90;;;;;;4972942;28;20047;-66
2022/09/09 04:52:20;;;;;;;22.42;14.93;;;14.30;99.90;;;;;;4972480;28;20050;-66
2022/09/09 04:54:46;;;;;;;16.90;13.05;;;14.30;99.90;;;;;;4972630;28;20463;-66
2022/09/09 04:57:12;;;;;;;18.38;13.65;;;14.20;99.90;;;;;;4971778;28;20074;-66
2022/09/09 04:59:39;;;;;;;21.67;14.85;;;14.30;99.90;;;;;;4961756;28;20126;-66
2022/09/09 05:02:05;;;;;;;18.45;13.15;;;14.30;99.90;;;;;;4953405;29;20047;-66
2022/09/09 05:04:30;;;;;;;17.35;13.18;;;14.30;99.90;;;;;;4962686;28;20046;-66
2022/09/09 05:06:56;;;;;;;26.25;13.00;;;14.30;99.90;;;;;;4972028;28;20093;-66
2022/09/09 05:09:21;;;;;;;18.52;12.30;;;14.30;99.90;;;;;;4972978;28;20054;-66
2022/09/09 05:11:47;;;;;;;20.73;13.73;;;14.30;99.90;;;;;;4971671;28;20058;-66
2022/09/09 05:14:14;;;;;;;17.60;13.55;;;14.30;99.90;;;;;;4972538;28;20689;-66
2022/09/09 05:16:40;;;;;;;17.42;13.00;;;14.30;99.90;;;;;;4972598;28;20047;-66
2022/09/09 05:19:07;;;;;;;19.40;11.80;;;14.30;99.90;;;;;;4972326;28;20066;-66
2022/09/09 05:21:33;;;;;;;27.80;15.82;;;14.30;99.90;;;;;;4971035;28;20050;-65
2022/09/09 05:24:00;;;;;;;18.35;13.85;;;14.30;99.90;;;;;;4968775;28;20047;-66
2022/09/09 05:26:26;;;;;;;21.60;14.18;;;14.30;99.90;;;;;;4968584;28;20057;-66
2022/09/09 05:28:52;;;;;;;19.95;14.13;;;14.30;99.90;;;;;;4970599;28;20588;-66
2022/09/09 05:31:19;;;;;;;18.90;13.80;;;14.30;99.90;;;;;;4972451;28;20047;-65
2022/09/09 05:33:47;;;;;;;18.45;13.55;;;14.30;99.90;;;;;;4971383;28;20496;-65
2022/09/09 05:36:16;;;;;;;24.30;14.10;;;14.30;99.90;;;;;;4972346;28;20069;-65
2022/09/09 05:38:43;;;;;;;22.08;12.20;;;14.30;99.90;;;;;;4970341;28;20127;-66
2022/09/09 05:41:11;;;;;;;16.17;13.45;;;14.30;99.90;;;;;;4965508;28;20509;-65
2022/09/09 05:43:38;;;;;;;17.65;12.45;;;14.30;99.90;;;;;;4970694;28;20046;-65
2022/09/09 05:46:10;;;;;;;15.68;12.48;;;14.30;99.90;;;;;;4971881;28;20138;-65
2022/09/09 05:48:38;;;;;;;18.98;13.63;;;14.30;99.90;;;;;;4971996;28;20039;-65
2022/09/09 05:51:08;;;;;;;18.77;12.40;;;14.40;99.90;;;;;;4971579;28;20042;-65
2022/09/09 05:53:35;;;;;;;15.57;12.75;;;14.40;99.90;;;;;;4971494;28;20073;-65
2022/09/09 05:56:04;;;;;;;16.90;12.32;;;14.30;99.90;;;;;;4966275;28;20045;-64
2022/09/09 05:58:31;;;;;;;15.70;12.77;;;14.40;99.90;;;;;;4963686;28;20415;-65
2022/09/09 06:01:10;;;;;;;17.48;13.25;;;14.40;99.90;;;;;;4971969;28;20093;-64
2022/09/09 06:03:39;;;;;;;17.00;12.55;;;14.40;99.90;;;;;;4970983;28;20412;-65
2022/09/09 06:06:07;;;;;;;18.00;13.30;;;14.50;99.90;;;;;;4970373;28;20065;-65
2022/09/09 06:08:36;;;;;;;18.15;13.60;;;14.50;99.90;;;;;;4970761;28;20057;-65
2022/09/09 06:11:08;;;;;;;17.27;12.13;;;14.50;99.90;;;;;;4966473;28;20042;-65
2022/09/09 06:13:38;;;;;;;20.60;13.18;;;14.50;99.90;;;;;;4968462;28;20043;-64
2022/09/09 06:16:08;;;;;;;18.55;11.30;;;14.60;99.90;;;;;;4966136;28;20078;-65
2022/09/09 06:18:33;;;;;;;19.77;12.23;;;14.60;99.90;;;;;;4970366;28;20047;-65
2022/09/09 06:21:01;;;;;;;14.75;11.65;;;14.50;99.90;;;;;;4971050;28;20163;-65
2022/09/09 06:23:28;;;;;;;16.70;11.55;;;14.60;99.90;;;;;;4970933;28;20044;-65
2022/09/09 06:26:14;;;;;;;16.08;12.40;;;14.60;99.90;;;;;;4971118;28;20054;-65
2022/09/09 06:28:42;;;;;;;12.20;10.23;;;14.70;99.90;;;;;;4959194;28;20043;-64
2022/09/09 06:31:12;;;;;;;14.85;11.15;;;14.70;99.90;;;;;;4957049;28;20104;-64
2022/09/09 06:33:44;;;;;;;13.93;9.98;;;14.80;99.90;;;;;;4954469;28;20035;-64
2022/09/09 06:36:15;;;;;;;16.40;11.75;;;14.80;99.90;;;;;;4964459;28;20046;-65
2022/09/09 06:38:42;;;;;;;13.20;9.82;;;14.90;99.90;;;;;;4964177;28;20587;-65
2022/09/09 06:41:09;;;;;;;11.40;9.80;;;14.90;99.90;;;;;;4963832;28;20556;-65
2022/09/09 06:43:35;;;;;;;19.80;9.93;;;15.00;99.90;;;;;;4966052;28;20130;-65
2022/09/09 06:46:03;;;;;;;14.63;11.30;;;15.00;99.90;;;;;;4967051;28;20161;-65
2022/09/09 06:48:29;;;;;;;12.20;10.10;;;15.10;99.90;;;;;;4969619;28;20515;-65
2022/09/09 06:51:08;;;;;;;17.00;10.95;;;15.20;99.90;;;;;;4969239;28;20035;-65
2022/09/09 06:53:35;;;;;;;20.20;10.05;;;15.20;99.90;;;;;;4968507;28;20118;-64
2022/09/09 06:56:27;;;;;;;20.45;9.68;;;15.20;99.90;;;;;;4970089;28;20065;-64
2022/09/09 06:58:54;;;;;;;17.08;9.85;;;15.20;99.90;;;;;;4969333;28;20444;-65
2022/09/09 07:01:23;;;;;;;11.30;10.10;;;15.20;99.90;;;;;;4968373;28;20053;-65
2022/09/09 07:03:54;;;;;;;11.75;8.20;;;15.20;99.90;;;;;;4965017;28;20040;-64
2022/09/09 07:06:26;;;;;;;18.55;10.27;;;15.20;99.90;;;;;;4964665;28;20431;-65
2022/09/09 07:08:53;;;;;;;11.90;9.23;;;15.20;99.90;;;;;;4969321;28;20043;-64
2022/09/09 07:11:21;;;;;;;11.18;9.32;;;15.20;99.90;;;;;;4966624;28;20484;-66
2022/09/09 07:13:48;;;;;;;13.73;9.88;;;15.20;99.90;;;;;;4957952;28;20038;-64
2022/09/09 07:16:17;;;;;;;17.88;10.52;;;15.20;99.90;;;;;;4969392;28;20047;-65
2022/09/09 07:18:43;;;;;;;14.93;10.93;;;15.30;99.90;;;;;;4970305;28;20516;-64
2022/09/09 07:21:14;;;;;;;16.98;10.88;;;15.30;99.90;;;;;;4966541;28;20046;-64
2022/09/09 07:23:40;;;;;;;24.70;11.30;;;15.30;99.90;;;;;;4970218;28;20130;-64
2022/09/09 07:26:14;;;;;;;16.42;9.90;;;15.40;99.90;;;;;;4969685;28;20050;-64
2022/09/09 07:28:41;;;;;;;15.85;10.38;;;15.40;99.90;;;;;;4969920;28;20035;-65
2022/09/09 07:31:13;;;;;;;15.20;10.02;;;15.50;99.90;;;;;;4970628;28;20062;-64
2022/09/09 07:33:40;;;;;;;17.33;10.48;;;15.60;99.90;;;;;;4964099;28;20050;-64
2022/09/09 07:36:13;;;;;;;21.23;10.90;;;15.70;99.90;;;;;;4969378;28;20436;-64
2022/09/09 07:38:48;;;;;;;13.20;10.13;;;15.90;99.90;;;;;;4956195;28;20291;-65
2022/09/09 07:41:20;;;;;;;16.35;9.40;;;15.90;99.90;;;;;;4962757;28;20047;-65
2022/09/09 07:43:48;;;;;;;15.52;11.05;;;16.20;99.90;;;;;;4964527;28;20822;-65
2022/09/09 07:46:16;;;;;;;10.50;9.20;;;16.50;99.90;;;;;;4969911;28;20134;-64
2022/09/09 07:48:46;;;;;;;11.13;9.45;;;16.70;99.90;;;;;;4969748;28;20381;-65
2022/09/09 07:51:19;;;;;;;11.48;8.88;;;17.10;99.90;;;;;;4969842;28;20071;-65
2022/09/09 07:53:46;;;;;;;16.73;9.43;;;17.50;99.90;;;;;;4969859;28;20488;-65
2022/09/09 07:56:16;;;;;;;9.73;8.65;;;17.80;99.90;;;;;;4969549;28;20049;-65
2022/09/09 07:58:44;;;;;;;15.20;10.02;;;18.10;99.90;;;;;;4957880;28;20121;-65
2022/09/09 08:01:11;;;;;;;;;;;18.30;99.90;;;;;;4950439;29;20035;-65
2022/09/09 08:03:39;;;;;;;11.90;8.27;;;18.50;99.90;;;;;;4953938;28;19937;-65
2022/09/09 08:06:07;;;;;;;11.73;7.47;;;18.40;99.90;;;;;;4963715;28;20668;-65
2022/09/09 08:08:38;;;;;;;13.70;8.70;;;18.70;99.90;;;;;;4963145;28;20138;-64
2022/09/09 08:11:11;;;;;;;11.90;8.13;;;18.70;99.90;;;;;;4963063;28;20477;-65
2022/09/09 08:13:38;;;;;;;10.45;7.78;;;18.90;99.90;;;;;;4967844;28;20050;-64
2022/09/09 08:16:12;;;;;;;7.93;6.60;;;19.00;99.90;;;;;;4976914;28;20734;-64
2022/09/09 08:18:39;;;;;;;9.65;7.25;;;19.10;99.90;;;;;;4968951;28;20047;-64
2022/09/09 08:21:11;;;;;;;12.53;8.40;;;19.20;99.90;;;;;;4962774;28;20118;-64
2022/09/09 08:23:39;;;;;;;11.77;8.80;;;19.30;99.90;;;;;;4967964;28;20337;-64
2022/09/09 08:26:14;;;;;;;16.67;9.18;;;19.40;99.90;;;;;;4967636;28;20057;-63
2022/09/09 08:28:41;;;;;;;9.90;8.77;;;19.50;99.90;;;;;;4968644;28;20046;-64
2022/09/09 08:31:14;;;;;;;31.55;7.72;;;19.70;99.90;;;;;;4968928;28;20103;-64
2022/09/09 08:33:41;;;;;;;15.68;8.75;;;19.80;99.90;;;;;;4968658;28;20053;-63
2022/09/09 08:36:10;;;;;;;18.25;8.38;;;19.90;99.90;;;;;;4968924;28;20134;-63
2022/09/09 08:38:37;;;;;;;12.73;7.85;;;20.20;99.90;;;;;;4969735;28;20043;-63
2022/09/09 08:41:14;;;;;;;14.32;8.52;;;20.30;99.90;;;;;;4952180;28;20078;-63
2022/09/09 08:43:43;;;;;;;17.52;8.75;;;20.30;99.90;;;;;;4968921;28;20404;-64
2022/09/09 08:46:17;;;;;;;15.00;8.10;;;20.30;99.90;;;;;;4968947;28;20047;-63
2022/09/09 08:49:00;;;;;;;15.73;7.78;;;20.30;99.90;;;;;;4968689;28;20058;-63
2022/09/09 08:51:29;;;;;;;9.20;7.15;;;20.40;99.90;;;;;;4966490;28;20034;-64
2022/09/09 08:53:59;;;;;;;18.98;8.38;;;20.30;99.90;;;;;;4968383;28;20047;-64
2022/09/09 08:56:28;;;;;;;13.40;8.55;;;20.30;99.90;;;;;;4954058;28;20043;-64
2022/09/09 08:58:56;;;;;;;17.50;8.02;;;20.20;99.90;;;;;;4964883;28;20046;-64
2022/09/09 09:01:49;;;;;;;14.80;9.00;;;20.40;99.90;;;;;;4962537;28;20121;-64
2022/09/09 09:04:51;;;;;;;18.27;9.48;;;20.20;99.90;;;;;;4967865;28;20094;-65
2022/09/09 09:07:44;;;;;;;9.52;8.52;;;20.10;99.90;;;;;;4968222;28;20082;-63
2022/09/09 09:10:38;;;;;;;15.48;8.35;;;20.10;99.90;;;;;;4958607;28;20047;-64
2022/09/09 09:13:13;;;;;;;10.27;8.27;;;20.00;99.90;;;;;;4967339;28;20058;-64
2022/09/09 09:15:41;;;;;;;12.30;8.90;;;19.90;99.90;;;;;;4966163;28;20099;-64
2022/09/09 09:18:12;;;;;;;17.83;8.60;;;19.80;99.90;;;;;;4964518;28;20083;-65
2022/09/09 09:21:05;;;;;;;12.07;8.30;;;20.00;99.90;;;;;;4952801;28;20464;-63
2022/09/09 09:23:48;;;;;;;17.95;8.65;;;20.00;99.90;;;;;;4965084;28;20047;-64
2022/09/09 09:26:14;;;;;;;22.88;9.15;;;20.00;99.90;;;;;;4959059;28;20148;-65
2022/09/09 09:28:40;;;;;;;14.20;7.97;;;20.00;99.90;;;;;;4966245;28;20062;-65
2022/09/09 09:31:11;;;;;;;12.15;7.68;;;19.90;99.90;;;;;;4967157;28;20051;-65
2022/09/09 09:33:54;;;;;;;19.70;7.63;;;19.70;99.90;;;;;;4961450;28;20096;-64
2022/09/09 09:36:46;;;;;;;16.77;7.80;;;19.70;99.90;;;;;;4969609;28;20455;-63
2022/09/09 09:39:26;;;;;;;13.25;8.05;;;19.70;99.90;;;;;;4963627;28;20097;-63
2022/09/09 09:41:52;;;;;;;16.98;8.10;;;19.70;99.90;;;;;;4968379;28;20057;-63
2022/09/09 09:44:30;;;;;;;11.52;6.63;;;19.70;99.90;;;;;;4970090;28;20137;-63
2022/09/09 09:47:12;;;;;;;13.80;6.60;;;19.80;99.90;;;;;;4965705;28;20061;-63
2022/09/09 09:49:39;;;;;;;14.98;7.40;;;19.90;99.90;;;;;;4965261;28;20057;-64
2022/09/09 09:52:07;;;;;;;13.15;7.03;;;20.00;99.90;;;;;;4966535;28;20058;-64
2022/09/09 09:54:41;;;;;;;17.67;7.65;;;20.00;99.90;;;;;;4972195;28;20062;-63
2022/09/09 09:57:16;;;;;;;16.65;6.50;;;19.90;99.90;;;;;;4968145;28;20393;-64
2022/09/09 09:59:42;;;;;;;15.95;7.20;;;19.90;99.90;;;;;;4970629;28;20117;-64
2022/09/09 10:02:20;;;;;;;20.10;9.18;;;19.80;99.90;;;;;;4970045;28;20054;-64
2022/09/09 10:04:46;;;;;;;9.80;6.20;;;19.70;99.90;;;;;;4971338;28;20053;-64
2022/09/09 10:07:17;;;;;;;12.60;6.53;;;19.80;99.90;;;;;;4965385;28;20055;-64
2022/09/09 10:09:44;;;;;;;12.93;6.90;;;19.80;99.90;;;;;;4966408;28;20066;-65
2022/09/09 10:12:45;;;;;;;13.10;6.13;;;19.70;99.90;;;;;;4965898;28;20055;-64
2022/09/09 10:15:39;;;;;;;14.40;6.10;;;19.80;99.90;;;;;;4970674;28;20074;-64
2022/09/09 10:18:29;;;;;;;15.38;5.72;;;19.90;99.90;;;;;;4971143;28;20051;-64
2022/09/09 10:21:05;;;;;;;18.50;6.68;;;19.90;99.90;;;;;;4968048;28;20598;-64
2022/09/09 10:24:07;;;;;;;15.85;6.53;;;19.90;99.90;;;;;;4968833;28;20046;-64
2022/09/09 10:27:01;;;;;;;13.13;6.07;;;20.00;99.90;;;;;;4969140;28;20504;-64
2022/09/09 10:29:43;;;;;;;9.00;5.97;;;20.00;99.90;;;;;;4967342;28;20046;-64
2022/09/09 10:32:33;;;;;;;11.90;4.75;;;20.00;99.90;;;;;;4964865;28;20047;-64
2022/09/09 10:35:10;;;;;;;14.70;5.20;;;19.90;99.90;;;;;;4970054;28;20145;-65
2022/09/09 10:37:36;;;;;;;;;;;19.80;99.90;;;;;;4969954;28;20042;-64
2022/09/09 10:40:27;;;;;;;13.00;5.60;;;19.70;99.90;;;;;;4964804;28;20354;-64
2022/09/09 10:43:00;;;;;;;10.23;5.13;;;19.60;99.90;;;;;;4969362;28;20047;-64
2022/09/09 10:45:33;;;;;;;11.30;6.07;;;19.70;99.90;;;;;;4967465;28;20085;-64
2022/09/09 10:48:15;;;;;;;7.72;5.15;;;20.00;99.90;;;;;;4968570;28;20050;-64
2022/09/09 10:50:53;;;;;;;16.88;5.95;;;20.30;99.90;;;;;;4966051;28;20401;-65
2022/09/09 10:53:33;;;;;;;11.27;5.63;;;20.40;99.90;;;;;;4970516;28;20500;-65
2022/09/09 10:56:14;;;;;;;12.73;5.68;;;20.40;99.90;;;;;;4969985;28;20043;-65
2022/09/09 10:58:43;;;;;;;15.13;7.68;;;20.40;99.90;;;;;;4970365;28;20078;-65
2022/09/09 11:01:22;;;;;;;14.77;6.00;;;20.20;99.90;;;;;;4970068;28;20054;-65
2022/09/09 11:03:59;;;;;;;7.45;4.72;;;20.10;99.90;;;;;;4968323;28;20057;-65
2022/09/09 11:06:34;;;;;;;14.38;5.28;;;20.20;99.90;;;;;;4962808;28;20213;-65
2022/09/09 11:09:02;;;;;;;17.08;6.45;;;20.30;99.90;;;;;;4970229;28;20047;-65
2022/09/09 11:11:31;;;;;;;;;;;20.30;99.90;;;;;;4966897;28;20119;-65
2022/09/09 11:14:22;;;;;;;9.85;5.10;;;20.20;99.90;;;;;;4965349;28;20004;-65
2022/09/09 11:16:57;;;;;;;13.80;5.15;;;20.20;99.90;;;;;;4968851;28;20145;-65
2022/09/09 11:19:41;;;;;;;13.07;5.88;;;20.30;99.90;;;;;;4969916;28;20047;-66
2022/09/09 11:22:23;;;;;;;12.90;5.88;;;20.20;99.90;;;;;;4965827;28;20051;-65
2022/09/09 11:25:01;;;;;;;12.43;5.40;;;20.20;99.90;;;;;;4969592;28;20102;-65
2022/09/09 11:27:49;;;;;;;14.63;5.15;;;20.40;99.90;;;;;;4969661;28;20694;-65
2022/09/09 11:30:21;;;;;;;12.90;4.55;;;20.60;99.90;;;;;;4955628;28;20438;-65
2022/09/09 11:33:26;;;;;;;9.70;4.20;;;20.60;99.90;;;;;;4963742;28;20074;-65
2022/09/09 11:36:26;;;;;;;17.23;5.20;;;20.70;99.90;;;;;;4954139;28;20093;-66
2022/09/09 11:38:57;;;;;;;9.98;4.32;;;20.70;99.90;;;;;;4963668;28;20448;-66
2022/09/09 11:41:24;;;;;;;12.60;3.95;;;20.90;99.90;;;;;;4967059;28;20086;-66
2022/09/09 11:43:52;;;;;;;11.27;4.00;;;20.90;99.90;;;;;;4978494;28;20125;-66
2022/09/09 11:46:32;;;;;;;8.80;4.10;;;20.90;99.90;;;;;;4969010;28;20763;-66
2022/09/09 11:49:03;;;;;;;14.57;3.88;;;20.90;99.90;;;;;;4968598;28;20055;-66
2022/09/09 11:51:31;;;;;;;12.55;4.13;;;21.10;99.90;;;;;;4969469;28;20035;-67
2022/09/09 11:54:02;;;;;;;15.35;4.65;;;21.20;99.90;;;;;;4968605;28;20042;-66
2022/09/09 11:56:30;;;;;;;14.38;5.43;;;21.20;99.90;;;;;;4968160;28;20435;-66
2022/09/09 11:59:05;;;;;;;8.57;4.55;;;21.10;99.90;;;;;;4969317;28;20497;-66
2022/09/09 12:01:44;;;;;;;12.73;4.65;;;21.00;99.90;;;;;;4954007;28;20050;-66
2022/09/09 12:04:24;;;;;;;8.93;4.28;;;21.10;99.90;;;;;;4957132;28;20386;-65
2022/09/09 12:07:03;;;;;;;9.65;5.07;;;21.30;99.90;;;;;;4959177;28;20097;-66
2022/09/09 12:09:48;;;;;;;13.48;4.22;;;21.20;99.90;;;;;;4962901;28;20101;-66
2022/09/09 12:12:14;;;;;;;9.95;4.13;;;21.10;99.90;;;;;;4968873;28;20412;-66
2022/09/09 12:14:54;;;;;;;10.18;4.10;;;21.10;99.90;;;;;;4965512;28;20047;-66
2022/09/09 12:17:20;;;;;;;8.05;3.80;;;21.10;99.90;;;;;;4969047;28;20043;-66
2022/09/09 12:19:46;;;;;;;9.50;3.83;;;21.20;99.90;;;;;;4968894;28;20046;-66
2022/09/09 12:22:32;;;;;;;8.07;4.00;;;21.20;99.90;;;;;;4962841;28;20062;-66
2022/09/09 12:25:35;;;;;;;11.52;3.78;;;21.30;99.90;;;;;;4964280;28;20055;-66
2022/09/09 12:28:32;;;;;;;6.15;3.75;;;21.40;99.90;;;;;;4949959;28;20105;-66
2022/09/09 12:31:09;;;;;;;20.63;4.22;;;21.40;99.90;;;;;;4964993;28;20047;-66
2022/09/09 12:33:42;;;;;;;8.82;3.47;;;21.30;99.90;;;;;;4969178;28;20057;-66
2022/09/09 12:36:13;;;;;;;12.30;4.38;;;21.20;99.90;;;;;;4968919;28;20092;-66
2022/09/09 12:38:41;;;;;;;7.18;3.75;;;21.20;99.90;;;;;;4961739;28;20054;-66
2022/09/09 12:41:24;;;;;;;6.82;3.92;;;21.30;99.90;;;;;;4964095;28;20055;-66
2022/09/09 12:43:50;;;;;;;5.55;4.15;;;21.30;99.90;;;;;;4968233;28;20058;-66
2022/09/09 12:46:38;;;;;;;5.85;3.40;;;21.30;99.90;;;;;;4968479;28;20587;-66
2022/09/09 12:49:04;;;;;;;12.60;3.53;;;21.40;99.90;;;;;;4963847;28;20051;-66
2022/09/09 12:51:33;;;;;;;8.35;3.88;;;21.30;99.90;;;;;;4967535;28;20046;-66
2022/09/09 12:53:59;;;;;;;12.95;4.57;;;21.30;99.90;;;;;;4967511;28;20046;-66
2022/09/09 12:56:29;;;;;;;7.35;3.58;;;21.40;99.90;;;;;;4961387;28;20054;-66
2022/09/09 12:58:58;;;;;;;9.38;3.70;;;21.60;99.90;;;;;;4967844;28;20039;-66
2022/09/09 13:01:35;;;;;;;11.15;4.57;;;21.60;99.90;;;;;;4967632;28;20131;-66
2022/09/09 13:04:01;;;;;;;12.15;5.78;;;21.50;99.90;;;;;;4968596;28;20113;-66
2022/09/09 13:06:32;;;;;;;7.95;4.22;;;21.50;99.90;;;;;;4968226;28;20051;-66